createdAt,value
2022-11-08T00:01:07.387Z,13.80
2022-11-08T00:03:35.779Z,12.60
2022-11-08T00:06:22.468Z,14.20
2022-11-08T00:09:09.113Z,12.90
2022-11-08T00:11:55.543Z,13.40
2022-11-08T00:14:24.137Z,14.30
2022-11-08T00:16:53.015Z,13.60
2022-11-08T00:19:21.458Z,14.10
2022-11-08T00:21:49.944Z,13.50
2022-11-08T00:24:18.883Z,13.10
2022-11-08T00:26:47.122Z,13.30
2022-11-08T00:29:15.628Z,12.90
2022-11-08T00:31:45.514Z,14.10
2022-11-08T00:34:14.243Z,13.10
2022-11-08T00:36:42.670Z,14.20
2022-11-08T00:39:11.566Z,13.90
2022-11-08T00:41:40.023Z,12.60
2022-11-08T00:44:08.955Z,13.00
2022-11-08T00:46:38.406Z,12.70
2022-11-08T00:49:07.239Z,12.90
2022-11-08T00:51:36.657Z,12.10
2022-11-08T00:54:07.877Z,11.70
2022-11-08T00:56:36.434Z,13.20
2022-11-08T00:59:04.772Z,12.60
2022-11-08T01:01:33.579Z,11.70
2022-11-08T01:04:02.291Z,11.90
2022-11-08T01:06:31.074Z,12.70
2022-11-08T01:08:59.778Z,12.10
2022-11-08T01:11:28.708Z,12.50
2022-11-08T01:13:59.683Z,13.20
2022-11-08T01:16:30.563Z,12.30
2022-11-08T01:18:59.668Z,12.50
2022-11-08T01:21:29.397Z,11.60
2022-11-08T01:23:58.077Z,12.50
2022-11-08T01:26:28.025Z,12.30
2022-11-08T01:28:57.913Z,11.40
2022-11-08T01:31:28.915Z,11.80
2022-11-08T01:33:58.480Z,12.10
2022-11-08T01:36:28.119Z,11.80
2022-11-08T01:38:57.323Z,12.30
2022-11-08T01:41:27.486Z,13.00
2022-11-08T01:43:57.953Z,11.50
2022-11-08T01:46:36.394Z,11.70
2022-11-08T01:49:20.379Z,11.70
2022-11-08T01:51:55.236Z,12.30
2022-11-08T01:54:31.387Z,11.40
2022-11-08T01:57:02.893Z,11.20
2022-11-08T01:59:32.631Z,11.50
2022-11-08T02:02:02.095Z,11.60
2022-11-08T02:04:30.879Z,11.70
2022-11-08T02:07:00.805Z,12.30
2022-11-08T02:09:30.668Z,11.50
2022-11-08T02:11:59.573Z,11.40
2022-11-08T02:14:28.439Z,12.00
2022-11-08T02:16:57.228Z,11.60
2022-11-08T02:19:36.684Z,11.30
2022-11-08T02:22:12.782Z,11.50
2022-11-08T02:24:41.986Z,11.30
2022-11-08T02:27:12.385Z,10.80
2022-11-08T02:29:40.970Z,10.70
2022-11-08T02:32:10.674Z,10.70
2022-11-08T02:34:43.642Z,11.60
2022-11-08T02:37:14.169Z,10.70
2022-11-08T02:39:43.544Z,10.80
2022-11-08T02:42:15.339Z,11.00
2022-11-08T02:44:43.913Z,11.50
2022-11-08T02:47:13.234Z,12.10
2022-11-08T02:49:41.627Z,11.10
2022-11-08T02:52:12.395Z,11.60
2022-11-08T02:54:40.666Z,11.70
2022-11-08T02:57:09.190Z,11.70
2022-11-08T02:59:38.877Z,12.20
2022-11-08T03:02:14.144Z,13.20
2022-11-08T03:04:42.695Z,11.60
2022-11-08T03:07:11.129Z,11.60
2022-11-08T03:09:39.568Z,11.30
2022-11-08T03:12:08.764Z,11.40
2022-11-08T03:14:37.315Z,10.90
2022-11-08T03:17:05.891Z,11.30
2022-11-08T03:19:34.671Z,12.00
2022-11-08T03:22:03.253Z,12.10
2022-11-08T03:24:31.704Z,10.80
2022-11-08T03:27:00.450Z,12.00
2022-11-08T03:29:28.886Z,11.10
2022-11-08T03:31:57.715Z,12.30
2022-11-08T03:34:26.354Z,12.80
2022-11-08T03:36:55.248Z,11.50
2022-11-08T03:39:23.628Z,11.00
2022-11-08T03:41:52.444Z,11.90
2022-11-08T03:44:21.092Z,12.10
2022-11-08T03:46:49.650Z,12.00
2022-11-08T03:49:18.004Z,12.30
2022-11-08T03:51:46.585Z,11.90
2022-11-08T03:54:15.935Z,11.60
2022-11-08T03:56:44.595Z,11.40
2022-11-08T03:59:13.486Z,17.40
2022-11-08T04:01:41.958Z,12.60
2022-11-08T04:04:10.560Z,12.30
2022-11-08T04:06:39.322Z,12.10
2022-11-08T04:09:08.074Z,11.60
2022-11-08T04:11:54.870Z,13.30
2022-11-08T04:14:41.779Z,12.10
2022-11-08T04:17:10.044Z,12.20
2022-11-08T04:19:57.366Z,13.10
2022-11-08T04:22:25.976Z,12.10
2022-11-08T04:24:54.774Z,13.00
2022-11-08T04:27:23.085Z,13.30
2022-11-08T04:29:51.416Z,12.30
2022-11-08T04:32:20.096Z,11.90
2022-11-08T04:34:48.468Z,15.60
2022-11-08T04:37:16.747Z,20.00
2022-11-08T04:39:45.393Z,13.30
2022-11-08T04:42:14.404Z,12.70
2022-11-08T04:44:42.716Z,12.20
2022-11-08T04:47:10.976Z,12.10
2022-11-08T04:49:39.224Z,20.70
2022-11-08T04:52:07.546Z,19.70
2022-11-08T04:54:37.239Z,14.20
2022-11-08T04:57:06.293Z,13.70
2022-11-08T04:59:34.795Z,12.40
2022-11-08T05:02:03.440Z,13.80
2022-11-08T05:04:32.193Z,12.90
2022-11-08T05:07:00.984Z,12.80
2022-11-08T05:09:29.326Z,14.00
2022-11-08T05:11:57.918Z,12.40
2022-11-08T05:14:26.364Z,12.80
2022-11-08T05:16:54.782Z,12.50
2022-11-08T05:19:40.439Z,12.40
2022-11-08T05:24:56.770Z,12.30
2022-11-08T05:27:25.516Z,12.30
2022-11-08T05:29:54.025Z,15.60
2022-11-08T05:32:22.718Z,15.00
2022-11-08T05:34:50.987Z,13.60
2022-11-08T05:37:19.461Z,13.40
2022-11-08T05:39:47.872Z,13.60
2022-11-08T05:42:28.991Z,12.80
2022-11-08T05:44:57.690Z,14.00
2022-11-08T05:47:26.339Z,13.30
2022-11-08T05:49:54.930Z,14.20
2022-11-08T05:52:24.161Z,13.80
2022-11-08T05:55:17.526Z,14.20
2022-11-08T05:57:46.426Z,13.40
2022-11-08T06:00:16.384Z,13.30
2022-11-08T06:02:45.302Z,12.50
2022-11-08T06:05:13.735Z,12.60
2022-11-08T06:07:42.126Z,17.80
2022-11-08T06:10:12.029Z,12.60
2022-11-08T06:12:41.634Z,13.30
2022-11-08T06:15:11.242Z,14.50
2022-11-08T06:17:40.380Z,13.10
2022-11-08T06:20:12.793Z,11.70
2022-11-08T06:22:42.838Z,13.40
2022-11-08T06:25:11.923Z,13.40
2022-11-08T06:27:40.521Z,13.80
2022-11-08T06:30:11.546Z,13.00
2022-11-08T06:32:40.803Z,14.10
2022-11-08T06:35:10.265Z,12.90
2022-11-08T06:37:38.650Z,13.20
2022-11-08T06:40:10.835Z,12.80
2022-11-08T06:42:39.711Z,11.90
2022-11-08T06:45:12.138Z,26.50
2022-11-08T06:47:40.605Z,14.60
2022-11-08T06:50:09.641Z,11.30
2022-11-08T06:52:40.284Z,12.20
2022-11-08T06:55:09.301Z,12.50
2022-11-08T06:57:38.088Z,11.80
2022-11-08T07:00:09.202Z,10.50
2022-11-08T07:02:38.193Z,12.40
2022-11-08T07:05:08.254Z,10.90
2022-11-08T07:07:37.274Z,11.60
2022-11-08T07:10:08.140Z,12.40
2022-11-08T07:12:37.066Z,16.40
2022-11-08T07:15:07.000Z,14.00
2022-11-08T07:17:38.690Z,12.50
2022-11-08T07:20:10.319Z,11.60
2022-11-08T07:22:38.806Z,12.20
2022-11-08T07:25:09.204Z,12.90
2022-11-08T07:27:38.535Z,12.80
2022-11-08T07:30:09.364Z,16.40
2022-11-08T07:32:38.171Z,17.30
2022-11-08T07:35:08.861Z,13.70
2022-11-08T07:37:37.630Z,12.20
2022-11-08T07:40:09.140Z,12.90
2022-11-08T07:43:09.473Z,11.60
2022-11-08T07:45:29.583Z,11.00
2022-11-08T07:48:09.486Z,12.90
2022-11-08T07:50:43.111Z,9.80
2022-11-08T07:53:12.003Z,11.80
2022-11-08T07:55:41.514Z,10.20
2022-11-08T07:58:11.514Z,9.80
2022-11-08T08:00:42.346Z,9.70
2022-11-08T08:03:13.745Z,9.40
2022-11-08T08:05:45.100Z,8.30
2022-11-08T08:08:19.092Z,9.60
2022-11-08T08:10:48.513Z,9.10
2022-11-08T08:13:17.752Z,11.40
2022-11-08T08:15:48.573Z,10.40
2022-11-08T08:18:20.328Z,10.00
2022-11-08T08:20:48.734Z,8.40
2022-11-08T08:23:18.118Z,8.90
2022-11-08T08:25:46.888Z,8.30
2022-11-08T08:28:15.623Z,7.90
2022-11-08T08:30:44.032Z,8.80
2022-11-08T08:33:31.394Z,8.60
2022-11-08T08:36:01.583Z,7.60
2022-11-08T08:38:30.811Z,7.50
2022-11-08T08:41:00.587Z,8.40
2022-11-08T08:43:31.755Z,7.90
2022-11-08T08:46:01.020Z,7.90
2022-11-08T08:48:44.496Z,7.90
2022-11-08T08:51:13.299Z,8.60
2022-11-08T08:53:41.730Z,7.80
2022-11-08T08:56:10.946Z,9.20
2022-11-08T08:58:39.680Z,11.70
2022-11-08T09:03:58.667Z,9.00
2022-11-08T09:06:27.299Z,8.00
2022-11-08T09:08:55.985Z,8.40
2022-11-08T09:11:24.427Z,6.60
2022-11-08T09:13:52.990Z,7.20
2022-11-08T09:16:21.801Z,6.30
2022-11-08T09:18:50.300Z,7.70
2022-11-08T09:21:18.816Z,7.00
2022-11-08T09:23:47.542Z,6.80
2022-11-08T09:26:16.317Z,7.40
2022-11-08T09:28:45.051Z,7.00
2022-11-08T09:31:13.829Z,6.60
2022-11-08T09:33:42.992Z,6.20
2022-11-08T09:36:14.061Z,6.50
2022-11-08T09:38:42.835Z,7.70
2022-11-08T09:41:32.553Z,7.20
2022-11-08T09:44:18.110Z,6.00
2022-11-08T09:46:53.048Z,6.10
2022-11-08T09:49:32.310Z,6.40
2022-11-08T09:52:03.587Z,6.60
2022-11-08T09:54:39.130Z,6.40
2022-11-08T09:57:18.028Z,7.00
2022-11-08T09:59:50.988Z,8.10
2022-11-08T10:02:32.100Z,6.90
2022-11-08T10:05:04.799Z,6.20
2022-11-08T10:08:01.307Z,7.70
2022-11-08T10:10:40.527Z,7.20
2022-11-08T10:13:18.178Z,7.20
2022-11-08T10:16:00.820Z,11.60
2022-11-08T10:18:47.256Z,20.60
2022-11-08T10:21:31.931Z,6.30
2022-11-08T10:24:10.359Z,7.60
2022-11-08T10:26:44.752Z,10.20
2022-11-08T10:29:19.164Z,6.00
2022-11-08T10:31:52.949Z,10.20
2022-11-08T10:34:26.579Z,6.20
2022-11-08T10:37:03.293Z,6.20
2022-11-08T10:39:39.245Z,6.00
2022-11-08T10:42:13.626Z,6.90
2022-11-08T10:44:42.909Z,5.00
2022-11-08T10:47:19.533Z,5.50
2022-11-08T10:49:48.003Z,5.20
2022-11-08T10:52:20.315Z,43.20
2022-11-08T10:54:50.667Z,30.10
2022-11-08T10:57:26.692Z,91.80
2022-11-08T10:59:56.690Z,23.80
2022-11-08T11:02:29.485Z,6.80
2022-11-08T11:05:22.423Z,5.80
2022-11-08T11:08:02.159Z,4.90
2022-11-08T11:10:33.620Z,6.90
2022-11-08T11:13:06.447Z,6.20
2022-11-08T11:15:37.879Z,15.90
2022-11-08T11:18:24.528Z,6.90
2022-11-08T11:21:03.243Z,9.80
2022-11-08T11:23:37.902Z,16.50
2022-11-08T11:26:13.832Z,7.60
2022-11-08T11:29:14.576Z,10.10
2022-11-08T11:31:45.589Z,7.00
2022-11-08T11:34:31.849Z,15.80
2022-11-08T11:37:05.851Z,5.80
2022-11-08T11:39:43.860Z,3.90
2022-11-08T11:42:47.516Z,14.40
2022-11-08T11:45:17.807Z,3.40
2022-11-08T11:47:50.666Z,4.10
2022-11-08T11:50:29.591Z,3.00
2022-11-08T11:53:00.469Z,3.70
2022-11-08T11:55:42.213Z,3.40
2022-11-08T11:58:27.090Z,3.80
2022-11-08T12:01:02.109Z,3.50
2022-11-08T12:06:28.243Z,3.10
2022-11-08T12:09:09.599Z,3.00
2022-11-08T12:11:48.013Z,4.10
2022-11-08T12:14:34.431Z,3.50
2022-11-08T12:17:17.123Z,3.70
2022-11-08T12:20:04.368Z,3.60
2022-11-08T12:23:17.669Z,3.80
2022-11-08T12:26:01.234Z,3.90
2022-11-08T12:28:51.128Z,3.40
2022-11-08T12:31:33.823Z,4.20
2022-11-08T12:34:24.412Z,3.60
2022-11-08T12:37:05.929Z,3.40
2022-11-08T12:39:47.120Z,3.50
2022-11-08T12:42:32.483Z,3.50
2022-11-08T12:45:22.764Z,3.60
2022-11-08T12:48:03.169Z,3.60
2022-11-08T12:50:45.569Z,3.60
2022-11-08T12:53:43.096Z,3.90
2022-11-08T12:56:21.237Z,4.00
2022-11-08T12:58:54.985Z,3.50
2022-11-08T13:01:30.180Z,3.50
2022-11-08T13:10:54.122Z,4.00
2022-11-08T13:13:33.048Z,3.20
2022-11-08T13:16:16.580Z,3.40
2022-11-08T13:18:50.086Z,3.10
2022-11-08T13:21:40.262Z,3.50
2022-11-08T13:24:45.305Z,4.00
2022-11-08T13:27:40.810Z,4.20
2022-11-08T13:30:37.415Z,4.10
2022-11-08T13:33:16.602Z,4.10
2022-11-08T13:35:58.401Z,4.70
2022-11-08T13:38:43.801Z,4.80
2022-11-08T13:43:50.115Z,4.60
2022-11-08T13:46:49.359Z,4.40
2022-11-08T13:49:22.717Z,4.60
2022-11-08T13:52:30.792Z,4.30
2022-11-08T13:55:01.698Z,4.50
2022-11-08T13:58:00.745Z,5.10
2022-11-08T14:00:49.990Z,4.50
2022-11-08T14:03:58.507Z,4.90
2022-11-08T14:06:37.254Z,6.00
2022-11-08T14:09:22.399Z,6.30
2022-11-08T14:12:02.931Z,6.50
2022-11-08T14:14:50.046Z,6.00
2022-11-08T14:17:34.969Z,5.60
2022-11-08T14:20:27.886Z,18.80
2022-11-08T14:23:02.771Z,19.60
2022-11-08T14:25:38.834Z,8.90
2022-11-08T14:28:24.669Z,5.70
2022-11-08T14:30:58.922Z,5.20
2022-11-08T14:33:31.534Z,5.90
2022-11-08T14:36:07.437Z,6.10
2022-11-08T14:38:47.514Z,5.80
2022-11-08T14:41:22.042Z,5.70
2022-11-08T14:43:55.334Z,5.90
2022-11-08T14:46:30.991Z,5.80
2022-11-08T14:49:11.763Z,6.30
2022-11-08T14:51:44.956Z,6.10
2022-11-08T14:54:21.153Z,5.70
2022-11-08T14:56:52.310Z,6.60
2022-11-08T14:59:24.869Z,7.00
2022-11-08T15:02:01.383Z,25.70
2022-11-08T15:04:33.061Z,11.90
2022-11-08T15:07:04.124Z,6.50
2022-11-08T15:09:36.923Z,7.30
2022-11-08T15:12:15.933Z,6.60
2022-11-08T15:14:53.416Z,8.50
2022-11-08T15:17:36.745Z,7.30
2022-11-08T15:20:23.143Z,7.20
2022-11-08T15:22:56.712Z,7.60
2022-11-08T15:25:35.599Z,7.70
2022-11-08T15:28:23.291Z,7.10
2022-11-08T15:30:58.392Z,6.80
2022-11-08T15:33:34.711Z,6.80
2022-11-08T15:36:13.485Z,7.50
2022-11-08T15:38:49.073Z,9.20
2022-11-08T15:41:34.617Z,24.80
2022-11-08T15:46:48.103Z,9.60
2022-11-08T15:49:25.033Z,9.00
2022-11-08T15:51:58.879Z,10.10
2022-11-08T15:54:30.757Z,9.10
2022-11-08T15:57:01.813Z,8.60
2022-11-08T15:59:36.099Z,8.30
2022-11-08T16:02:15.040Z,7.80
2022-11-08T16:04:46.091Z,7.00
2022-11-08T16:07:17.270Z,6.80
2022-11-08T16:09:48.584Z,8.00
2022-11-08T16:12:19.912Z,7.80
2022-11-08T16:14:52.175Z,7.10
2022-11-08T16:17:23.141Z,6.90
2022-11-08T16:19:54.334Z,6.90
2022-11-08T16:22:28.242Z,7.80
2022-11-08T16:24:59.761Z,8.00
2022-11-08T16:27:30.738Z,20.20
2022-11-08T16:30:02.111Z,12.30
2022-11-08T16:32:33.400Z,9.30
2022-11-08T16:35:04.538Z,8.00
2022-11-08T16:37:35.446Z,7.60
2022-11-08T16:40:14.180Z,7.30
2022-11-08T16:42:49.349Z,7.60
2022-11-08T16:48:15.007Z,8.20
2022-11-08T16:50:46.610Z,8.10
2022-11-08T16:53:22.430Z,9.00
2022-11-08T16:55:53.270Z,9.10
2022-11-08T16:58:24.061Z,8.30
2022-11-08T17:00:55.768Z,8.60
2022-11-08T17:03:29.747Z,8.30
2022-11-08T17:06:01.151Z,9.10
2022-11-08T17:08:32.199Z,9.50
2022-11-08T17:11:03.544Z,9.30
2022-11-08T17:13:40.060Z,9.20
2022-11-08T17:16:14.438Z,17.80
2022-11-08T17:18:49.776Z,13.70
2022-11-08T17:24:21.550Z,10.40
2022-11-08T17:26:53.656Z,9.00
2022-11-08T17:29:24.576Z,10.20
2022-11-08T17:31:55.495Z,10.30
2022-11-08T17:34:29.621Z,10.50
2022-11-08T17:37:00.530Z,11.40
2022-11-08T17:39:32.372Z,10.20
2022-11-08T17:42:03.589Z,10.40
2022-11-08T17:44:34.497Z,10.90
2022-11-08T17:47:06.218Z,11.00
2022-11-08T17:49:42.801Z,10.50
2022-11-08T17:52:16.237Z,12.70
2022-11-08T17:54:52.640Z,18.50
2022-11-08T17:57:24.039Z,16.60
2022-11-08T17:59:54.850Z,13.20
2022-11-08T18:02:28.287Z,10.40
2022-11-08T18:04:59.426Z,11.00
2022-11-08T18:07:47.616Z,10.00
2022-11-08T18:10:18.662Z,9.80
2022-11-08T18:12:50.597Z,10.70
2022-11-08T18:15:22.275Z,11.50
2022-11-08T18:17:53.662Z,11.40
2022-11-08T18:20:25.192Z,13.80
2022-11-08T18:22:58.696Z,12.40
2022-11-08T18:25:31.166Z,12.90
2022-11-08T18:28:05.513Z,11.60
2022-11-08T18:31:08.075Z,12.30
2022-11-08T18:33:42.122Z,12.50
2022-11-08T18:36:16.811Z,12.90
2022-11-08T18:38:49.404Z,12.30
2022-11-08T18:41:26.262Z,13.40
2022-11-08T18:44:46.908Z,13.00
2022-11-08T18:47:18.224Z,19.30
2022-11-08T18:49:49.653Z,21.10
2022-11-08T18:52:20.902Z,26.90
2022-11-08T18:54:52.917Z,16.30
2022-11-08T18:57:25.416Z,14.40
2022-11-08T19:00:00.868Z,14.30
2022-11-08T19:02:42.746Z,14.90
2022-11-08T19:05:15.148Z,14.30
2022-11-08T19:07:46.223Z,14.70
2022-11-08T19:10:17.563Z,14.80
2022-11-08T19:12:49.325Z,14.40
2022-11-08T19:15:22.428Z,15.20
2022-11-08T19:17:54.083Z,14.70
2022-11-08T19:20:38.877Z,15.60
2022-11-08T19:23:09.988Z,15.60
2022-11-08T19:25:41.035Z,14.70
2022-11-08T19:28:12.228Z,15.00
2022-11-08T19:30:51.645Z,16.60
2022-11-08T19:33:25.265Z,14.70
2022-11-08T19:35:56.781Z,17.20
2022-11-08T19:38:28.562Z,15.30
2022-11-08T19:41:05.479Z,16.30
2022-11-08T19:43:38.835Z,18.00
2022-11-08T19:46:12.699Z,16.70
2022-11-08T19:48:45.683Z,18.20
2022-11-08T19:51:19.222Z,17.10
2022-11-08T19:53:50.868Z,17.40
2022-11-08T19:56:32.874Z,16.50
2022-11-08T19:59:09.891Z,19.30
2022-11-08T20:01:41.066Z,17.50
2022-11-08T20:04:14.545Z,18.70
2022-11-08T20:06:46.090Z,16.60
2022-11-08T20:09:19.972Z,17.10
2022-11-08T20:11:51.148Z,15.10
2022-11-08T20:14:22.217Z,18.10
2022-11-08T20:16:56.560Z,17.40
2022-11-08T20:19:31.286Z,19.10
2022-11-08T20:22:06.498Z,16.50
2022-11-08T20:27:07.392Z,18.40
2022-11-08T20:29:38.589Z,18.50
2022-11-08T20:32:12.912Z,17.70
2022-11-08T20:34:45.998Z,16.90
2022-11-08T20:37:17.768Z,17.00
2022-11-08T20:39:49.527Z,16.80
2022-11-08T20:42:23.125Z,18.20
2022-11-08T20:44:54.423Z,17.90
2022-11-08T20:47:25.629Z,18.10
2022-11-08T20:49:57.373Z,16.30
2022-11-08T20:52:28.521Z,17.20
2022-11-08T20:55:04.125Z,17.70
2022-11-08T20:57:40.826Z,18.00
2022-11-08T21:00:15.849Z,16.60
2022-11-08T21:02:52.555Z,17.40
2022-11-08T21:05:24.362Z,16.90
2022-11-08T21:08:56.166Z,15.70
2022-11-08T21:10:56.332Z,15.90
2022-11-08T21:13:29.485Z,16.00
2022-11-08T21:16:26.787Z,17.70
2022-11-08T21:18:56.242Z,17.30
2022-11-08T21:21:27.566Z,17.90
2022-11-08T21:23:58.522Z,17.10
2022-11-08T21:26:29.381Z,17.10
2022-11-08T21:29:00.513Z,17.10
2022-11-08T21:31:31.860Z,17.40
2022-11-08T21:34:02.905Z,16.50
2022-11-08T21:36:34.055Z,17.10
2022-11-08T21:39:40.626Z,17.50
2022-11-08T21:42:14.034Z,15.60
2022-11-08T21:44:45.321Z,17.90
2022-11-08T21:47:16.362Z,16.30
2022-11-08T21:49:57.946Z,16.60
2022-11-08T21:52:28.922Z,16.40
2022-11-08T21:55:47.836Z,17.90
2022-11-08T21:58:22.323Z,16.30
2022-11-08T22:00:54.427Z,18.10
2022-11-08T22:03:25.290Z,18.60
2022-11-08T22:05:56.202Z,17.70
2022-11-08T22:08:27.041Z,18.40
2022-11-08T22:10:57.734Z,20.40
2022-11-08T22:13:28.442Z,19.50
2022-11-08T22:15:59.145Z,15.10
2022-11-08T22:18:58.827Z,17.40
2022-11-08T22:21:39.038Z,17.50
2022-11-08T22:24:11.733Z,17.10
2022-11-08T22:26:42.977Z,19.80
2022-11-08T22:29:14.258Z,17.70
2022-11-08T22:31:45.859Z,18.10
2022-11-08T22:34:16.748Z,17.90
2022-11-08T22:36:47.838Z,17.80
2022-11-08T22:39:19.996Z,17.60
2022-11-08T22:41:52.281Z,17.80
2022-11-08T22:44:23.220Z,17.30
2022-11-08T22:46:53.968Z,16.70
2022-11-08T22:49:25.439Z,17.40
2022-11-08T22:51:56.201Z,16.70
2022-11-08T22:54:28.309Z,16.80
2022-11-08T22:56:59.068Z,18.20
2022-11-08T22:59:29.876Z,17.00
2022-11-08T23:02:00.615Z,17.80
2022-11-08T23:04:33.622Z,18.60
2022-11-08T23:07:04.361Z,17.80
2022-11-08T23:09:35.087Z,16.80
2022-11-08T23:12:24.284Z,16.80
2022-11-08T23:15:13.165Z,16.90
2022-11-08T23:17:44.006Z,15.80
2022-11-08T23:20:32.434Z,17.30
2022-11-08T23:23:20.766Z,16.50
2022-11-08T23:25:56.013Z,17.60
2022-11-08T23:28:45.696Z,15.90
2022-11-08T23:31:30.533Z,15.30
2022-11-08T23:34:01.688Z,17.00
2022-11-08T23:36:32.485Z,16.10
2022-11-08T23:39:03.398Z,18.00
2022-11-08T23:41:52.079Z,17.90
2022-11-08T23:44:26.822Z,18.40
2022-11-08T23:46:59.380Z,15.50
2022-11-08T23:49:30.613Z,17.60
2022-11-08T23:52:01.640Z,17.70
2022-11-08T23:54:32.980Z,16.70
2022-11-08T23:57:03.922Z,18.10
2022-11-08T23:59:35.515Z,16.30
